Aérodrome :
LOGIN :

S'inscrire | Disclaimer

   EN    FR    IT 

 










Légende :    VFR   VFR Marginal   IFR   IFR Intensif   IFR Très Intensif
Visi : 
Plafond : 
>= 8 km
>= 3000ft
5 à 8 km
1000 à 3000 ft
1500m à 5 km
500 à 1000 ft
800 à 1500m
200 à 500 ft
< 800m
< 200 ft
Symboles :   Orages  Brouillard  Fortes neiges  Fortes précipitations  Vent > 20 kt
SIGMETs :   Divers  Orages  Givrage  Turbulence  Onde Orograph.  Cendres Volcan.







- Altitude de l'aérodrome : 776 ft
- Code IATA : RMS


ETAR - Ramstein Air Base

DERNIER METAR :
  • 170549Z 00000KT M0400 R27/0200 FG VV001 15/15 A3008 RMK AO2A SLP183

METARs EXPIRÉS :
  • 170537Z 00000KT M0400 R27/0150 FG VV002 15/15 A3008 RMK AO2A SLP183
  • 170524Z 00000KT M0400 R27/0300 FG VV002 15/15 A3008 RMK AO2A SLP182 $
  • 170514Z 00000KT M0400 R27/0250 FG VV003 15/15 A3008 RMK AO2A SLP182 $
  • 170504Z 00000KT M0400 R27/0200 FG VV002 15/15 A3008 RMK AO2A SLP182 $
  • 170458Z 00000KT M0400 R27/0150 FG VV002 15/15 A3008 RMK AO2A SLP182 T01480148 $
  • 170436Z 00000KT M0400 R27/0150 FG VV001 15/15 A3008 RMK AO2A SLP182 $
  • 170425Z 00000KT M0400 R27/0300 FG VV002 14/14 A3008 RMK AO2A SLP183 $
  • 170412Z 00000KT 0200 R27/0700 FG VV002 14/14 A3008 RMK AO2A SLP183 $
  • 170403Z 00000KT M0200 R27/0550 FG VV002 14/14 A3008 RMK AO2A VIS M0400 RWY09 SLP183 $
  • 170358Z 00000KT 0200 R27/0700 FG VV002 14/14 A3008 RMK AO2A VIS M0400 RWY09 SLP183 T01400140 $
  • 170346Z 00000KT 0400 R27/1100 FG OVC002 15/15 A3008 RMK AO2A VIS 2800V9999 OVC V BKN SLP182
  • 170340Z 00000KT 0800 FG OVC002 14/14 A3008 RMK AO2A OVC V BKN SLP183
  • 170319Z 00000KT 4000 R27/1100 BR SCT003 14/14 A3008 RMK AO2A VIS 4000V9999 VIS 1200 RWY09 SLP183 $
  • 170315Z 00000KT 6000 R27/1400 BR SCT003 14/14 A3008 RMK AO2A SLP183
  • 170258Z 00000KT 9999 FEW004 14/14 A3007 RMK AO2A VIS 1600 RWY09 SLP179 T01430143 57008 $

TAF AMD TAF ETAR
Valide du 17 à 05h jusqu'au 18 à 08h UTC


170542Z 1705/1808 VRB06KT 0200 FG BKN001 QNH3008INS
TEMPO 1705/1707 4000 BR BKN003
BECMG 1706/1707 20006KT 6000 BR SCT030 QNH3010INS
BECMG 1709/1710 22009KT 9999 NSW SCT030 QNH3010INS
BECMG 1711/1712 25010G15KT 9999 FEW050 QNH3008INS
TEMPO 1715/1718 25012G20KT
BECMG 1717/1718 25006KT 9999 BKN060 QNH3006INS
BECMG 1805/1806 21009KT 9999 OVC040 QNH3002INS TX27/1715Z TN12/1805Z
Pas de NOTAMs connus pour ce terrain.



MET'MAP, la Météo Aéronautique d'un coup d'oeil ! - Copyright ORBIFLY Décembre 2007 - Disclaimer

ORBIFLY MET'MAP TEAM :

Programmation & Développement : Alexandra Zaïnal
Conception & Développement : Baudouin d'Aumeries
Co-Programmation & Développement : Marc-Olivier Méhu
Soutien technique & logistique : Manuel Goepfert

Contact : metmap@orbifly.com




SOURCES & CREDITS :

   NOAA